sensor_id;sensor_type;location;lat;lon;timestamp;temperature;humidity
4107;DHT22;21906;50.812;7.132;2024-01-30T00:01:50;10.00;70.30
4107;DHT22;21906;50.812;7.132;2024-01-30T00:04:15;10.00;70.40
4107;DHT22;21906;50.812;7.132;2024-01-30T00:06:43;10.00;70.30
4107;DHT22;21906;50.812;7.132;2024-01-30T00:09:08;9.90;70.40
4107;DHT22;21906;50.812;7.132;2024-01-30T00:11:35;9.90;70.40
4107;DHT22;21906;50.812;7.132;2024-01-30T00:14:01;9.90;70.40
4107;DHT22;21906;50.812;7.132;2024-01-30T00:16:28;9.90;70.40
4107;DHT22;21906;50.812;7.132;2024-01-30T00:18:54;9.90;70.50
4107;DHT22;21906;50.812;7.132;2024-01-30T00:21:20;9.90;70.50
4107;DHT22;21906;50.812;7.132;2024-01-30T00:23:47;10.00;70.40
4107;DHT22;21906;50.812;7.132;2024-01-30T00:26:13;9.90;70.50
4107;DHT22;21906;50.812;7.132;2024-01-30T00:28:41;9.90;70.50
4107;DHT22;21906;50.812;7.132;2024-01-30T00:31:07;9.90;70.50
4107;DHT22;21906;50.812;7.132;2024-01-30T00:33:33;9.90;70.50
4107;DHT22;21906;50.812;7.132;2024-01-30T00:35:59;9.90;70.60
4107;DHT22;21906;50.812;7.132;2024-01-30T00:38:24;9.90;70.50
4107;DHT22;21906;50.812;7.132;2024-01-30T00:40:50;9.90;70.60
4107;DHT22;21906;50.812;7.132;2024-01-30T00:43:16;9.90;70.50
4107;DHT22;21906;50.812;7.132;2024-01-30T00:45:43;9.90;70.60
4107;DHT22;21906;50.812;7.132;2024-01-30T00:48:09;9.80;70.60
4107;DHT22;21906;50.812;7.132;2024-01-30T00:50:37;9.90;70.70
4107;DHT22;21906;50.812;7.132;2024-01-30T00:53:03;9.90;70.70
4107;DHT22;21906;50.812;7.132;2024-01-30T00:55:29;9.90;70.60
4107;DHT22;21906;50.812;7.132;2024-01-30T00:57:54;9.90;70.60
4107;DHT22;21906;50.812;7.132;2024-01-30T01:00:20;9.90;70.50
4107;DHT22;21906;50.812;7.132;2024-01-30T01:02:46;9.90;70.60
4107;DHT22;21906;50.812;7.132;2024-01-30T01:05:12;9.90;70.60
4107;DHT22;21906;50.812;7.132;2024-01-30T01:07:38;9.90;70.60
4107;DHT22;21906;50.812;7.132;2024-01-30T01:10:04;9.90;70.50
4107;DHT22;21906;50.812;7.132;2024-01-30T01:12:30;9.90;70.50
4107;DHT22;21906;50.812;7.132;2024-01-30T01:14:55;9.90;70.50
4107;DHT22;21906;50.812;7.132;2024-01-30T01:17:21;9.90;70.50
4107;DHT22;21906;50.812;7.132;2024-01-30T01:19:46;9.90;70.50
4107;DHT22;21906;50.812;7.132;2024-01-30T01:22:12;9.90;70.50
4107;DHT22;21906;50.812;7.132;2024-01-30T01:24:38;9.90;70.50
4107;DHT22;21906;50.812;7.132;2024-01-30T01:27:06;9.90;70.40
4107;DHT22;21906;50.812;7.132;2024-01-30T01:29:32;9.90;70.40
4107;DHT22;21906;50.812;7.132;2024-01-30T01:31:58;9.90;70.50
4107;DHT22;21906;50.812;7.132;2024-01-30T01:34:24;9.90;70.40
4107;DHT22;21906;50.812;7.132;2024-01-30T01:36:50;9.90;70.40
4107;DHT22;21906;50.812;7.132;2024-01-30T01:39:17;9.90;70.50
4107;DHT22;21906;50.812;7.132;2024-01-30T01:41:42;9.90;70.40
4107;DHT22;21906;50.812;7.132;2024-01-30T01:44:09;9.90;70.50
4107;DHT22;21906;50.812;7.132;2024-01-30T01:46:34;9.90;70.50
4107;DHT22;21906;50.812;7.132;2024-01-30T01:49:04;9.90;70.50
4107;DHT22;21906;50.812;7.132;2024-01-30T01:51:31;9.90;70.50
4107;DHT22;21906;50.812;7.132;2024-01-30T01:54:04;9.90;70.40
4107;DHT22;21906;50.812;7.132;2024-01-30T01:56:31;9.90;70.40
4107;DHT22;21906;50.812;7.132;2024-01-30T01:59:01;9.90;70.50
4107;DHT22;21906;50.812;7.132;2024-01-30T02:01:31;9.90;70.40
4107;DHT22;21906;50.812;7.132;2024-01-30T02:03:58;9.80;70.70
4107;DHT22;21906;50.812;7.132;2024-01-30T02:06:24;9.80;70.70
4107;DHT22;21906;50.812;7.132;2024-01-30T02:08:50;9.80;70.80
4107;DHT22;21906;50.812;7.132;2024-01-30T02:11:16;9.80;70.90
4107;DHT22;21906;50.812;7.132;2024-01-30T02:13:42;9.70;70.80
4107;DHT22;21906;50.812;7.132;2024-01-30T02:16:08;9.80;71.00
4107;DHT22;21906;50.812;7.132;2024-01-30T02:18:33;9.80;71.00
4107;DHT22;21906;50.812;7.132;2024-01-30T02:21:07;9.80;71.00
4107;DHT22;21906;50.812;7.132;2024-01-30T02:23:33;9.80;71.00
4107;DHT22;21906;50.812;7.132;2024-01-30T02:25:59;9.70;71.20
4107;DHT22;21906;50.812;7.132;2024-01-30T02:28:25;9.60;71.60
4107;DHT22;21906;50.812;7.132;2024-01-30T02:30:51;9.60;71.70
4107;DHT22;21906;50.812;7.132;2024-01-30T02:33:17;9.60;71.90
4107;DHT22;21906;50.812;7.132;2024-01-30T02:35:42;9.60;71.90
4107;DHT22;21906;50.812;7.132;2024-01-30T02:38:08;9.70;71.70
4107;DHT22;21906;50.812;7.132;2024-01-30T02:40:34;9.70;71.40
4107;DHT22;21906;50.812;7.132;2024-01-30T02:43:01;9.70;71.50
4107;DHT22;21906;50.812;7.132;2024-01-30T02:45:26;9.70;71.60
4107;DHT22;21906;50.812;7.132;2024-01-30T02:47:52;9.80;71.30
4107;DHT22;21906;50.812;7.132;2024-01-30T02:50:18;9.90;71.10
4107;DHT22;21906;50.812;7.132;2024-01-30T02:52:43;9.90;71.00
4107;DHT22;21906;50.812;7.132;2024-01-30T02:55:09;9.90;70.90
4107;DHT22;21906;50.812;7.132;2024-01-30T02:57:35;9.90;70.90
4107;DHT22;21906;50.812;7.132;2024-01-30T03:00:01;9.90;70.70
4107;DHT22;21906;50.812;7.132;2024-01-30T03:02:26;9.90;70.70
4107;DHT22;21906;50.812;7.132;2024-01-30T03:04:52;9.90;70.60
4107;DHT22;21906;50.812;7.132;2024-01-30T03:07:18;9.90;70.70
4107;DHT22;21906;50.812;7.132;2024-01-30T03:09:46;9.90;70.70
4107;DHT22;21906;50.812;7.132;2024-01-30T03:12:12;9.80;70.90
4107;DHT22;21906;50.812;7.132;2024-01-30T03:14:37;9.80;70.90
4107;DHT22;21906;50.812;7.132;2024-01-30T03:17:03;9.90;70.80
4107;DHT22;21906;50.812;7.132;2024-01-30T03:19:29;9.90;70.70
4107;DHT22;21906;50.812;7.132;2024-01-30T03:21:55;9.90;70.60
4107;DHT22;21906;50.812;7.132;2024-01-30T03:24:20;9.90;70.70
4107;DHT22;21906;50.812;7.132;2024-01-30T03:26:46;9.90;70.60
4107;DHT22;21906;50.812;7.132;2024-01-30T03:29:11;9.80;70.70
4107;DHT22;21906;50.812;7.132;2024-01-30T03:31:38;9.90;70.70
4107;DHT22;21906;50.812;7.132;2024-01-30T03:34:04;9.80;70.90
4107;DHT22;21906;50.812;7.132;2024-01-30T03:36:30;9.80;70.80
4107;DHT22;21906;50.812;7.132;2024-01-30T03:38:58;9.80;70.70
4107;DHT22;21906;50.812;7.132;2024-01-30T03:41:24;9.70;71.00
4107;DHT22;21906;50.812;7.132;2024-01-30T03:43:49;9.70;71.00
4107;DHT22;21906;50.812;7.132;2024-01-30T03:46:15;9.80;70.90
4107;DHT22;21906;50.812;7.132;2024-01-30T03:48:41;9.80;70.80
4107;DHT22;21906;50.812;7.132;2024-01-30T03:51:07;9.80;70.80
4107;DHT22;21906;50.812;7.132;2024-01-30T03:53:32;9.80;70.70
4107;DHT22;21906;50.812;7.132;2024-01-30T03:55:58;9.80;70.60
4107;DHT22;21906;50.812;7.132;2024-01-30T03:58:24;9.80;70.70
4107;DHT22;21906;50.812;7.132;2024-01-30T04:00:49;9.70;70.80
4107;DHT22;21906;50.812;7.132;2024-01-30T04:03:15;9.70;70.90
4107;DHT22;21906;50.812;7.132;2024-01-30T04:05:41;9.70;70.70
4107;DHT22;21906;50.812;7.132;2024-01-30T04:08:07;9.60;71.10
4107;DHT22;21906;50.812;7.132;2024-01-30T04:10:34;9.60;71.20
4107;DHT22;21906;50.812;7.132;2024-01-30T04:12:59;9.60;71.10
4107;DHT22;21906;50.812;7.132;2024-01-30T04:15:25;9.40;71.30
4107;DHT22;21906;50.812;7.132;2024-01-30T04:17:51;9.50;71.30
4107;DHT22;21906;50.812;7.132;2024-01-30T04:20:17;9.30;71.50
4107;DHT22;21906;50.812;7.132;2024-01-30T04:22:46;9.20;72.30
4107;DHT22;21906;50.812;7.132;2024-01-30T04:25:13;9.30;72.10
4107;DHT22;21906;50.812;7.132;2024-01-30T04:27:39;9.30;71.90
4107;DHT22;21906;50.812;7.132;2024-01-30T04:30:05;9.40;71.70
4107;DHT22;21906;50.812;7.132;2024-01-30T04:32:31;9.40;71.60
4107;DHT22;21906;50.812;7.132;2024-01-30T04:34:57;9.40;71.50
4107;DHT22;21906;50.812;7.132;2024-01-30T04:37:23;9.40;71.40
4107;DHT22;21906;50.812;7.132;2024-01-30T04:39:49;9.40;71.50
4107;DHT22;21906;50.812;7.132;2024-01-30T04:42:14;9.40;71.50
4107;DHT22;21906;50.812;7.132;2024-01-30T04:44:40;9.40;71.50
4107;DHT22;21906;50.812;7.132;2024-01-30T04:47:06;9.40;71.50
4107;DHT22;21906;50.812;7.132;2024-01-30T04:49:34;9.40;71.50
4107;DHT22;21906;50.812;7.132;2024-01-30T04:52:00;9.40;71.40
4107;DHT22;21906;50.812;7.132;2024-01-30T04:54:26;9.40;71.50
4107;DHT22;21906;50.812;7.132;2024-01-30T04:56:51;9.30;71.50
4107;DHT22;21906;50.812;7.132;2024-01-30T04:59:17;9.30;71.50
4107;DHT22;21906;50.812;7.132;2024-01-30T05:01:42;9.30;71.60
4107;DHT22;21906;50.812;7.132;2024-01-30T05:04:10;9.30;71.50
4107;DHT22;21906;50.812;7.132;2024-01-30T05:06:36;9.30;71.50
4107;DHT22;21906;50.812;7.132;2024-01-30T05:09:02;9.20;71.60
4107;DHT22;21906;50.812;7.132;2024-01-30T05:11:30;9.10;72.10
4107;DHT22;21906;50.812;7.132;2024-01-30T05:13:55;9.10;72.20
4107;DHT22;21906;50.812;7.132;2024-01-30T05:16:21;9.20;72.10
4107;DHT22;21906;50.812;7.132;2024-01-30T05:18:47;9.20;72.10
4107;DHT22;21906;50.812;7.132;2024-01-30T05:21:12;9.10;72.10
4107;DHT22;21906;50.812;7.132;2024-01-30T05:23:38;9.20;71.90
4107;DHT22;21906;50.812;7.132;2024-01-30T05:26:03;9.10;72.00
4107;DHT22;21906;50.812;7.132;2024-01-30T05:28:30;9.10;72.20
4107;DHT22;21906;50.812;7.132;2024-01-30T05:30:58;9.10;72.20
4107;DHT22;21906;50.812;7.132;2024-01-30T05:33:24;9.10;72.20
4107;DHT22;21906;50.812;7.132;2024-01-30T05:35:50;9.10;72.20
4107;DHT22;21906;50.812;7.132;2024-01-30T05:38:16;9.10;72.20
4107;DHT22;21906;50.812;7.132;2024-01-30T05:40:41;9.00;72.40
4107;DHT22;21906;50.812;7.132;2024-01-30T05:43:07;8.90;72.60
4107;DHT22;21906;50.812;7.132;2024-01-30T05:45:33;9.00;72.50
4107;DHT22;21906;50.812;7.132;2024-01-30T05:48:00;9.00;72.60
4107;DHT22;21906;50.812;7.132;2024-01-30T05:50:26;8.80;73.00
4107;DHT22;21906;50.812;7.132;2024-01-30T05:52:52;8.80;73.20
4107;DHT22;21906;50.812;7.132;2024-01-30T05:55:18;8.90;73.00
4107;DHT22;21906;50.812;7.132;2024-01-30T05:57:44;8.90;72.90
4107;DHT22;21906;50.812;7.132;2024-01-30T06:00:10;8.90;72.80
4107;DHT22;21906;50.812;7.132;2024-01-30T06:02:36;8.90;72.90
4107;DHT22;21906;50.812;7.132;2024-01-30T06:05:01;8.90;73.00
4107;DHT22;21906;50.812;7.132;2024-01-30T06:07:27;8.70;73.50
4107;DHT22;21906;50.812;7.132;2024-01-30T06:09:53;8.90;73.40
4107;DHT22;21906;50.812;7.132;2024-01-30T06:12:18;8.90;73.20
4107;DHT22;21906;50.812;7.132;2024-01-30T06:14:44;8.90;73.10
4107;DHT22;21906;50.812;7.132;2024-01-30T06:17:09;8.90;73.10
4107;DHT22;21906;50.812;7.132;2024-01-30T06:19:37;8.90;72.90
4107;DHT22;21906;50.812;7.132;2024-01-30T06:22:04;9.00;73.00
4107;DHT22;21906;50.812;7.132;2024-01-30T06:24:29;9.00;72.90
4107;DHT22;21906;50.812;7.132;2024-01-30T06:26:55;8.90;73.00
4107;DHT22;21906;50.812;7.132;2024-01-30T06:29:21;8.90;73.20
4107;DHT22;21906;50.812;7.132;2024-01-30T06:31:46;8.90;73.30
4107;DHT22;21906;50.812;7.132;2024-01-30T06:34:12;8.90;73.30
4107;DHT22;21906;50.812;7.132;2024-01-30T06:36:38;8.90;73.20
4107;DHT22;21906;50.812;7.132;2024-01-30T06:39:04;8.90;73.30
4107;DHT22;21906;50.812;7.132;2024-01-30T06:41:32;8.90;73.30
4107;DHT22;21906;50.812;7.132;2024-01-30T06:43:58;9.00;73.20
4107;DHT22;21906;50.812;7.132;2024-01-30T06:46:24;9.00;73.10
4107;DHT22;21906;50.812;7.132;2024-01-30T06:48:49;8.90;73.40
4107;DHT22;21906;50.812;7.132;2024-01-30T06:51:15;8.90;73.40
4107;DHT22;21906;50.812;7.132;2024-01-30T06:53:40;8.90;73.20
4107;DHT22;21906;50.812;7.132;2024-01-30T06:56:06;9.00;73.40
4107;DHT22;21906;50.812;7.132;2024-01-30T06:58:32;8.80;73.70
4107;DHT22;21906;50.812;7.132;2024-01-30T07:00:58;8.80;74.20
4107;DHT22;21906;50.812;7.132;2024-01-30T07:03:24;8.90;74.10
4107;DHT22;21906;50.812;7.132;2024-01-30T07:05:51;8.90;73.80
4107;DHT22;21906;50.812;7.132;2024-01-30T07:08:17;8.90;73.80
4107;DHT22;21906;50.812;7.132;2024-01-30T07:10:46;8.90;73.70
4107;DHT22;21906;50.812;7.132;2024-01-30T07:13:13;9.00;73.40
4107;DHT22;21906;50.812;7.132;2024-01-30T07:15:38;9.00;73.40
4107;DHT22;21906;50.812;7.132;2024-01-30T07:18:05;8.90;73.70
4107;DHT22;21906;50.812;7.132;2024-01-30T07:20:31;8.90;73.60
4107;DHT22;21906;50.812;7.132;2024-01-30T07:23:00;9.00;73.40
4107;DHT22;21906;50.812;7.132;2024-01-30T07:25:26;9.10;73.30
4107;DHT22;21906;50.812;7.132;2024-01-30T07:27:53;9.00;73.30
4107;DHT22;21906;50.812;7.132;2024-01-30T07:30:19;9.00;73.40
4107;DHT22;21906;50.812;7.132;2024-01-30T07:32:46;9.10;73.20
4107;DHT22;21906;50.812;7.132;2024-01-30T07:35:12;9.10;73.20
4107;DHT22;21906;50.812;7.132;2024-01-30T07:37:37;9.10;73.20
4107;DHT22;21906;50.812;7.132;2024-01-30T07:40:03;9.20;73.10
4107;DHT22;21906;50.812;7.132;2024-01-30T07:42:29;9.10;73.20
4107;DHT22;21906;50.812;7.132;2024-01-30T07:44:55;9.20;73.20
4107;DHT22;21906;50.812;7.132;2024-01-30T07:47:20;9.20;73.30
4107;DHT22;21906;50.812;7.132;2024-01-30T07:49:46;9.20;73.30
4107;DHT22;21906;50.812;7.132;2024-01-30T07:52:13;9.30;73.20
4107;DHT22;21906;50.812;7.132;2024-01-30T07:54:39;9.20;73.30
4107;DHT22;21906;50.812;7.132;2024-01-30T07:57:04;9.30;73.30
4107;DHT22;21906;50.812;7.132;2024-01-30T07:59:30;9.20;73.40
4107;DHT22;21906;50.812;7.132;2024-01-30T08:01:56;9.20;73.50
4107;DHT22;21906;50.812;7.132;2024-01-30T08:04:21;9.30;73.60
4107;DHT22;21906;50.812;7.132;2024-01-30T08:06:47;9.30;73.80
4107;DHT22;21906;50.812;7.132;2024-01-30T08:09:14;9.40;73.70
4107;DHT22;21906;50.812;7.132;2024-01-30T08:11:40;9.30;73.70
4107;DHT22;21906;50.812;7.132;2024-01-30T08:14:05;9.10;74.40
4107;DHT22;21906;50.812;7.132;2024-01-30T08:16:31;9.30;74.10
4107;DHT22;21906;50.812;7.132;2024-01-30T08:18:57;9.30;74.00
4107;DHT22;21906;50.812;7.132;2024-01-30T08:21:23;9.30;73.90
4107;DHT22;21906;50.812;7.132;2024-01-30T08:23:49;9.40;74.00
4107;DHT22;21906;50.812;7.132;2024-01-30T08:26:15;9.50;73.70
4107;DHT22;21906;50.812;7.132;2024-01-30T08:28:40;9.60;73.30
4107;DHT22;21906;50.812;7.132;2024-01-30T08:31:06;9.60;73.30
4107;DHT22;21906;50.812;7.132;2024-01-30T08:33:32;9.70;73.00
4107;DHT22;21906;50.812;7.132;2024-01-30T08:35:58;9.70;72.80
4107;DHT22;21906;50.812;7.132;2024-01-30T08:38:24;9.80;72.60
4107;DHT22;21906;50.812;7.132;2024-01-30T08:40:49;9.60;73.00
4107;DHT22;21906;50.812;7.132;2024-01-30T08:43:15;9.60;73.00
4107;DHT22;21906;50.812;7.132;2024-01-30T08:45:42;9.60;73.20
4107;DHT22;21906;50.812;7.132;2024-01-30T08:48:08;9.40;73.70
4107;DHT22;21906;50.812;7.132;2024-01-30T08:50:34;9.50;73.70
4107;DHT22;21906;50.812;7.132;2024-01-30T08:53:00;9.50;73.30
4107;DHT22;21906;50.812;7.132;2024-01-30T08:55:25;9.60;73.70
4107;DHT22;21906;50.812;7.132;2024-01-30T08:57:51;9.60;73.40
4107;DHT22;21906;50.812;7.132;2024-01-30T09:00:17;9.70;73.40
4107;DHT22;21906;50.812;7.132;2024-01-30T09:02:43;9.80;73.10
4107;DHT22;21906;50.812;7.132;2024-01-30T09:05:09;9.90;72.70
4107;DHT22;21906;50.812;7.132;2024-01-30T09:07:35;9.90;72.80
4107;DHT22;21906;50.812;7.132;2024-01-30T09:10:01;9.90;72.80
4107;DHT22;21906;50.812;7.132;2024-01-30T09:12:26;10.00;72.80
4107;DHT22;21906;50.812;7.132;2024-01-30T09:14:52;10.00;72.60
4107;DHT22;21906;50.812;7.132;2024-01-30T09:17:18;10.10;72.60
4107;DHT22;21906;50.812;7.132;2024-01-30T09:19:45;10.10;72.50
4107;DHT22;21906;50.812;7.132;2024-01-30T09:22:11;10.10;72.30
4107;DHT22;21906;50.812;7.132;2024-01-30T09:24:36;10.00;72.70
4107;DHT22;21906;50.812;7.132;2024-01-30T09:27:02;9.90;73.00
4107;DHT22;21906;50.812;7.132;2024-01-30T09:29:28;10.10;72.60
4107;DHT22;21906;50.812;7.132;2024-01-30T09:31:54;10.00;72.70
4107;DHT22;21906;50.812;7.132;2024-01-30T09:34:20;10.10;72.80
4107;DHT22;21906;50.812;7.132;2024-01-30T09:36:45;10.10;72.90
4107;DHT22;21906;50.812;7.132;2024-01-30T09:39:11;10.20;72.80
4107;DHT22;21906;50.812;7.132;2024-01-30T09:41:46;10.20;73.10
4107;DHT22;21906;50.812;7.132;2024-01-30T09:44:17;10.40;72.90
4107;DHT22;21906;50.812;7.132;2024-01-30T09:46:47;10.40;72.80
4107;DHT22;21906;50.812;7.132;2024-01-30T09:49:13;10.40;73.00
4107;DHT22;21906;50.812;7.132;2024-01-30T09:51:40;10.60;72.70
4107;DHT22;21906;50.812;7.132;2024-01-30T09:54:08;10.80;72.30
4107;DHT22;21906;50.812;7.132;2024-01-30T09:56:33;10.80;72.30
4107;DHT22;21906;50.812;7.132;2024-01-30T09:58:59;10.90;72.10
4107;DHT22;21906;50.812;7.132;2024-01-30T10:01:25;11.00;71.80
4107;DHT22;21906;50.812;7.132;2024-01-30T10:03:53;10.90;71.90
4107;DHT22;21906;50.812;7.132;2024-01-30T10:06:19;11.00;71.70
4107;DHT22;21906;50.812;7.132;2024-01-30T10:08:46;11.10;71.80
4107;DHT22;21906;50.812;7.132;2024-01-30T10:11:12;11.10;71.40
4107;DHT22;21906;50.812;7.132;2024-01-30T10:13:39;11.10;71.90
4107;DHT22;21906;50.812;7.132;2024-01-30T10:16:05;11.30;71.80
4107;DHT22;21906;50.812;7.132;2024-01-30T10:18:32;11.40;71.50
4107;DHT22;21906;50.812;7.132;2024-01-30T10:20:59;11.50;71.40
4107;DHT22;21906;50.812;7.132;2024-01-30T10:23:25;11.60;70.90
4107;DHT22;21906;50.812;7.132;2024-01-30T10:25:54;11.70;70.50
4107;DHT22;21906;50.812;7.132;2024-01-30T10:28:19;11.70;70.70
4107;DHT22;21906;50.812;7.132;2024-01-30T10:30:47;11.70;70.60
4107;DHT22;21906;50.812;7.132;2024-01-30T10:33:22;11.60;70.80
4107;DHT22;21906;50.812;7.132;2024-01-30T10:35:49;11.70;71.00
4107;DHT22;21906;50.812;7.132;2024-01-30T10:38:15;11.70;70.90
4107;DHT22;21906;50.812;7.132;2024-01-30T10:40:45;11.70;70.90
4107;DHT22;21906;50.812;7.132;2024-01-30T10:43:15;11.80;71.00
4107;DHT22;21906;50.812;7.132;2024-01-30T10:45:49;11.80;70.60
4107;DHT22;21906;50.812;7.132;2024-01-30T10:48:16;11.80;70.60
4107;DHT22;21906;50.812;7.132;2024-01-30T10:50:45;11.70;71.00
4107;DHT22;21906;50.812;7.132;2024-01-30T10:53:12;11.70;71.10
4107;DHT22;21906;50.812;7.132;2024-01-30T10:55:39;11.80;71.10
4107;DHT22;21906;50.812;7.132;2024-01-30T10:58:05;11.90;71.30
4107;DHT22;21906;50.812;7.132;2024-01-30T11:00:31;11.90;71.30
4107;DHT22;21906;50.812;7.132;2024-01-30T11:02:58;11.90;71.20
4107;DHT22;21906;50.812;7.132;2024-01-30T11:05:25;11.90;71.40
4107;DHT22;21906;50.812;7.132;2024-01-30T11:07:53;12.00;71.50
4107;DHT22;21906;50.812;7.132;2024-01-30T11:10:19;12.00;71.40
4107;DHT22;21906;50.812;7.132;2024-01-30T11:12:46;12.00;71.40
4107;DHT22;21906;50.812;7.132;2024-01-30T11:15:13;12.00;71.40
4107;DHT22;21906;50.812;7.132;2024-01-30T11:17:43;12.00;71.20
4107;DHT22;21906;50.812;7.132;2024-01-30T11:20:16;12.20;71.00
4107;DHT22;21906;50.812;7.132;2024-01-30T11:22:44;12.20;71.00
4107;DHT22;21906;50.812;7.132;2024-01-30T11:25:14;12.20;70.90
4107;DHT22;21906;50.812;7.132;2024-01-30T11:27:45;12.30;70.90
4107;DHT22;21906;50.812;7.132;2024-01-30T11:30:20;12.40;70.70
4107;DHT22;21906;50.812;7.132;2024-01-30T11:33:01;12.40;70.60
4107;DHT22;21906;50.812;7.132;2024-01-30T11:35:34;12.50;70.30
4107;DHT22;21906;50.812;7.132;2024-01-30T11:38:01;12.50;69.80
4107;DHT22;21906;50.812;7.132;2024-01-30T11:40:28;12.50;69.90
4107;DHT22;21906;50.812;7.132;2024-01-30T11:42:55;12.60;69.30
4107;DHT22;21906;50.812;7.132;2024-01-30T11:45:21;12.70;69.20
4107;DHT22;21906;50.812;7.132;2024-01-30T11:47:47;12.70;69.20
4107;DHT22;21906;50.812;7.132;2024-01-30T11:50:13;12.80;68.70
4107;DHT22;21906;50.812;7.132;2024-01-30T11:52:39;12.80;68.50
4107;DHT22;21906;50.812;7.132;2024-01-30T11:55:06;12.90;68.30
4107;DHT22;21906;50.812;7.132;2024-01-30T11:57:33;12.90;68.10
4107;DHT22;21906;50.812;7.132;2024-01-30T12:00:01;12.90;68.10
4107;DHT22;21906;50.812;7.132;2024-01-30T12:02:29;13.00;67.50
4107;DHT22;21906;50.812;7.132;2024-01-30T12:04:55;13.10;67.40
4107;DHT22;21906;50.812;7.132;2024-01-30T12:07:21;13.00;67.60
4107;DHT22;21906;50.812;7.132;2024-01-30T12:09:53;13.10;67.40
4107;DHT22;21906;50.812;7.132;2024-01-30T12:12:22;13.10;67.20
4107;DHT22;21906;50.812;7.132;2024-01-30T12:14:49;13.10;67.20
4107;DHT22;21906;50.812;7.132;2024-01-30T12:17:32;13.10;66.90
4107;DHT22;21906;50.812;7.132;2024-01-30T12:20:04;13.20;66.80
4107;DHT22;21906;50.812;7.132;2024-01-30T12:22:38;13.30;66.80
4107;DHT22;21906;50.812;7.132;2024-01-30T12:25:12;13.40;66.30
4107;DHT22;21906;50.812;7.132;2024-01-30T12:27:39;13.40;66.60
4107;DHT22;21906;50.812;7.132;2024-01-30T12:30:14;13.40;66.60
4107;DHT22;21906;50.812;7.132;2024-01-30T12:32:44;13.50;66.90
4107;DHT22;21906;50.812;7.132;2024-01-30T12:35:14;13.50;66.70
4107;DHT22;21906;50.812;7.132;2024-01-30T12:37:40;13.50;66.60
4107;DHT22;21906;50.812;7.132;2024-01-30T12:40:07;13.50;66.70
4107;DHT22;21906;50.812;7.132;2024-01-30T12:42:33;13.50;66.60
4107;DHT22;21906;50.812;7.132;2024-01-30T12:44:59;13.60;66.30
4107;DHT22;21906;50.812;7.132;2024-01-30T12:47:25;13.60;66.30
4107;DHT22;21906;50.812;7.132;2024-01-30T12:49:51;13.50;66.10
4107;DHT22;21906;50.812;7.132;2024-01-30T12:52:20;13.50;65.90
4107;DHT22;21906;50.812;7.132;2024-01-30T12:54:46;13.50;65.90
4107;DHT22;21906;50.812;7.132;2024-01-30T12:57:12;13.50;65.50
4107;DHT22;21906;50.812;7.132;2024-01-30T12:59:38;13.50;65.30
4107;DHT22;21906;50.812;7.132;2024-01-30T13:02:04;13.50;65.10
4107;DHT22;21906;50.812;7.132;2024-01-30T13:04:30;13.50;65.30
4107;DHT22;21906;50.812;7.132;2024-01-30T13:06:56;13.50;65.30
4107;DHT22;21906;50.812;7.132;2024-01-30T13:09:23;13.50;64.90
4107;DHT22;21906;50.812;7.132;2024-01-30T13:11:50;13.50;65.00
4107;DHT22;21906;50.812;7.132;2024-01-30T13:14:17;13.50;65.40
4107;DHT22;21906;50.812;7.132;2024-01-30T13:16:43;13.60;65.30
4107;DHT22;21906;50.812;7.132;2024-01-30T13:19:09;13.60;64.70
4107;DHT22;21906;50.812;7.132;2024-01-30T13:21:35;13.60;65.10
4107;DHT22;21906;50.812;7.132;2024-01-30T13:24:00;13.60;65.10
4107;DHT22;21906;50.812;7.132;2024-01-30T13:26:26;13.60;64.90
4107;DHT22;21906;50.812;7.132;2024-01-30T13:28:52;13.70;64.80
4107;DHT22;21906;50.812;7.132;2024-01-30T13:31:18;13.70;64.80
4107;DHT22;21906;50.812;7.132;2024-01-30T13:33:45;13.70;64.70
4107;DHT22;21906;50.812;7.132;2024-01-30T13:36:11;13.80;64.40
4107;DHT22;21906;50.812;7.132;2024-01-30T13:38:37;13.80;64.10
4107;DHT22;21906;50.812;7.132;2024-01-30T13:41:05;13.70;64.40
4107;DHT22;21906;50.812;7.132;2024-01-30T13:43:30;13.70;64.80
4107;DHT22;21906;50.812;7.132;2024-01-30T13:45:56;13.70;64.40
4107;DHT22;21906;50.812;7.132;2024-01-30T13:48:22;13.50;64.70
4107;DHT22;21906;50.812;7.132;2024-01-30T13:50:48;13.50;64.90
4107;DHT22;21906;50.812;7.132;2024-01-30T13:53:14;13.50;64.80
4107;DHT22;21906;50.812;7.132;2024-01-30T13:55:40;13.30;65.20
4107;DHT22;21906;50.812;7.132;2024-01-30T13:58:06;13.40;65.30
4107;DHT22;21906;50.812;7.132;2024-01-30T14:00:33;13.40;65.20
4107;DHT22;21906;50.812;7.132;2024-01-30T14:02:59;13.40;65.30
4107;DHT22;21906;50.812;7.132;2024-01-30T14:05:25;13.30;65.00
4107;DHT22;21906;50.812;7.132;2024-01-30T14:07:53;13.30;65.20
4107;DHT22;21906;50.812;7.132;2024-01-30T14:10:19;13.30;65.90
4107;DHT22;21906;50.812;7.132;2024-01-30T14:12:45;13.20;66.20
4107;DHT22;21906;50.812;7.132;2024-01-30T14:15:14;13.40;65.70
4107;DHT22;21906;50.812;7.132;2024-01-30T14:17:47;13.30;66.00
4107;DHT22;21906;50.812;7.132;2024-01-30T14:20:15;13.30;66.20
4107;DHT22;21906;50.812;7.132;2024-01-30T14:22:44;13.30;66.20
4107;DHT22;21906;50.812;7.132;2024-01-30T14:25:10;13.40;65.50
4107;DHT22;21906;50.812;7.132;2024-01-30T14:27:36;13.40;65.70
4107;DHT22;21906;50.812;7.132;2024-01-30T14:30:02;13.30;65.80
4107;DHT22;21906;50.812;7.132;2024-01-30T14:32:28;13.40;66.00
4107;DHT22;21906;50.812;7.132;2024-01-30T14:34:54;13.40;66.10
4107;DHT22;21906;50.812;7.132;2024-01-30T14:37:21;13.40;65.90
4107;DHT22;21906;50.812;7.132;2024-01-30T14:39:47;13.40;65.90
4107;DHT22;21906;50.812;7.132;2024-01-30T14:42:16;13.40;66.40
4107;DHT22;21906;50.812;7.132;2024-01-30T14:44:42;13.40;66.40
4107;DHT22;21906;50.812;7.132;2024-01-30T14:47:08;13.40;66.60
4107;DHT22;21906;50.812;7.132;2024-01-30T14:49:34;13.20;66.50
4107;DHT22;21906;50.812;7.132;2024-01-30T14:52:00;13.20;66.80
4107;DHT22;21906;50.812;7.132;2024-01-30T14:54:27;13.20;67.00
4107;DHT22;21906;50.812;7.132;2024-01-30T14:56:53;13.20;67.00
4107;DHT22;21906;50.812;7.132;2024-01-30T14:59:19;13.30;67.00
4107;DHT22;21906;50.812;7.132;2024-01-30T15:01:45;13.20;66.60
4107;DHT22;21906;50.812;7.132;2024-01-30T15:04:11;13.20;66.90
4107;DHT22;21906;50.812;7.132;2024-01-30T15:06:37;13.20;67.00
4107;DHT22;21906;50.812;7.132;2024-01-30T15:09:03;13.30;67.10
4107;DHT22;21906;50.812;7.132;2024-01-30T15:11:28;13.30;67.00
4107;DHT22;21906;50.812;7.132;2024-01-30T15:13:54;13.20;67.10
4107;DHT22;21906;50.812;7.132;2024-01-30T15:16:20;13.20;66.80
4107;DHT22;21906;50.812;7.132;2024-01-30T15:18:46;13.10;67.10
4107;DHT22;21906;50.812;7.132;2024-01-30T15:21:11;13.00;67.20
4107;DHT22;21906;50.812;7.132;2024-01-30T15:23:37;13.00;67.50
4107;DHT22;21906;50.812;7.132;2024-01-30T15:26:03;13.00;68.10
4107;DHT22;21906;50.812;7.132;2024-01-30T15:28:36;12.90;68.30
4107;DHT22;21906;50.812;7.132;2024-01-30T15:31:03;12.90;67.90
4107;DHT22;21906;50.812;7.132;2024-01-30T15:33:29;12.90;68.00
4107;DHT22;21906;50.812;7.132;2024-01-30T15:35:55;12.90;68.40
4107;DHT22;21906;50.812;7.132;2024-01-30T15:38:21;12.90;68.00
4107;DHT22;21906;50.812;7.132;2024-01-30T15:40:47;13.00;67.90
4107;DHT22;21906;50.812;7.132;2024-01-30T15:43:13;12.90;68.10
4107;DHT22;21906;50.812;7.132;2024-01-30T15:45:38;12.90;68.10
4107;DHT22;21906;50.812;7.132;2024-01-30T15:48:05;13.00;67.70
4107;DHT22;21906;50.812;7.132;2024-01-30T15:50:31;12.90;67.50